Time;durP1;ratioP1;P1;durP2;ratioP2;P2;SDS_P1;SDS_P2;PMS_P1;PMS_P2;Temp;Humidity;BMP_temperature;BMP_pressure;BME280_temperature;BME280_humidity;BME280_pressure;Samples;Min_cycle;Max_cycle;Signal;HPM_P1;HPM_P2
2023/02/10 05:02:23;;;;;;;8.48;7.63;;;3.10;99.90;;;;;;5029486;23;20317;-68
2023/02/10 05:04:49;;;;;;;7.85;6.40;;;3.10;99.90;;;;;;4935014;29;20214;-65
2023/02/10 05:07:16;;;;;;;10.07;5.45;;;3.20;99.90;;;;;;4927592;29;20210;-65
2023/02/10 05:09:43;;;;;;;8.65;8.05;;;3.20;99.90;;;;;;4929436;29;20658;-64
2023/02/10 05:12:09;;;;;;;10.90;6.20;;;3.20;99.90;;;;;;4931242;29;20230;-65
2023/02/10 05:14:36;;;;;;;12.30;5.20;;;3.30;99.90;;;;;;4930701;29;20218;-66
2023/02/10 05:17:03;;;;;;;5.50;4.90;;;3.30;99.90;;;;;;4926666;29;20240;-66
2023/02/10 05:19:31;;;;;;;9.13;5.78;;;3.30;99.90;;;;;;4927790;29;20933;-67
2023/02/10 05:21:58;;;;;;;7.35;5.43;;;3.40;99.90;;;;;;4950556;23;20230;-70
2023/02/10 05:24:25;;;;;;;6.53;6.07;;;3.50;99.90;;;;;;4928787;29;20210;-71
2023/02/10 05:26:51;;;;;;;10.88;7.95;;;3.50;99.90;;;;;;4932402;29;20206;-70
2023/02/10 05:29:18;;;;;;;6.60;5.97;;;3.50;99.90;;;;;;4932807;29;20204;-70
2023/02/10 05:31:45;;;;;;;6.38;5.80;;;3.50;99.90;;;;;;4932187;29;20226;-70
2023/02/10 05:34:11;;;;;;;13.27;5.22;;;3.50;99.90;;;;;;4931158;29;20212;-70
2023/02/10 05:36:39;;;;;;;11.63;8.85;;;3.50;99.90;;;;;;4932786;29;20677;-71
2023/02/10 05:39:24;;;;;;;6.03;4.82;;;3.50;99.90;;;;;;4930809;29;20585;-70
2023/02/10 05:41:51;;;;;;;8.77;8.10;;;3.60;99.90;;;;;;4931658;29;20536;-70
2023/02/10 05:44:19;;;;;;;4.72;4.30;;;3.60;99.90;;;;;;4932285;29;20206;-70
2023/02/10 05:46:45;;;;;;;13.70;8.32;;;3.70;99.90;;;;;;4929400;29;20213;-71
2023/02/10 05:49:12;;;;;;;8.23;4.90;;;3.70;99.90;;;;;;4925682;29;20225;-70
2023/02/10 05:51:40;;;;;;;15.93;6.03;;;3.70;99.90;;;;;;4926959;29;20346;-71
2023/02/10 05:54:07;;;;;;;15.02;5.45;;;3.70;99.90;;;;;;4928498;29;20210;-71
2023/02/10 05:56:34;;;;;;;6.78;5.50;;;3.70;99.90;;;;;;4932473;29;20214;-71
2023/02/10 05:59:00;;;;;;;9.02;8.32;;;3.70;99.90;;;;;;4931646;29;20209;-71
2023/02/10 06:01:28;;;;;;;8.52;7.75;;;3.70;99.90;;;;;;4932081;29;20237;-71
2023/02/10 06:03:55;;;;;;;4.75;4.35;;;3.70;99.90;;;;;;4930471;29;20674;-69
2023/02/10 06:06:22;;;;;;;7.47;4.95;;;3.70;99.90;;;;;;4931330;29;20551;-71
2023/02/10 06:08:50;;;;;;;6.35;3.90;;;3.60;99.90;;;;;;4931240;29;20206;-69
2023/02/10 06:11:17;;;;;;;9.40;5.22;;;3.60;99.90;;;;;;4930929;29;20225;-69
2023/02/10 06:13:43;;;;;;;6.53;5.93;;;3.50;99.90;;;;;;4931332;29;20214;-69
2023/02/10 06:16:11;;;;;;;8.65;7.20;;;3.50;99.90;;;;;;4931469;29;20214;-69
2023/02/10 06:18:38;;;;;;;13.00;8.52;;;3.50;99.90;;;;;;4930766;29;20217;-69
2023/02/10 06:21:05;;;;;;;9.85;4.90;;;3.50;99.90;;;;;;4929857;29;20264;-69
2023/02/10 06:23:32;;;;;;;19.02;6.82;;;3.50;99.90;;;;;;4927900;29;20222;-69
2023/02/10 06:26:00;;;;;;;15.52;7.03;;;3.50;99.90;;;;;;4931271;29;20206;-69
2023/02/10 06:28:28;;;;;;;20.55;7.32;;;3.50;99.90;;;;;;4926085;29;20206;-69
2023/02/10 06:30:55;;;;;;;6.53;5.43;;;3.50;99.90;;;;;;4935569;29;20238;-69
2023/02/10 06:33:22;;;;;;;27.08;7.05;;;3.50;99.90;;;;;;4937466;29;20206;-69
2023/02/10 06:35:49;;;;;;;8.23;7.32;;;3.50;99.90;;;;;;4942412;29;20214;-69
2023/02/10 06:38:16;;;;;;;6.22;4.65;;;3.50;99.90;;;;;;4943973;29;20218;-69
2023/02/10 06:40:42;;;;;;;7.70;6.60;;;3.60;99.90;;;;;;4942109;29;20313;-69
2023/02/10 06:43:11;;;;;;;6.30;5.38;;;3.50;99.90;;;;;;4939499;28;20226;-69
2023/02/10 06:45:37;;;;;;;15.02;6.80;;;3.60;99.90;;;;;;4938926;29;20221;-68
2023/02/10 06:48:05;;;;;;;12.52;6.60;;;3.60;99.90;;;;;;4929103;29;20301;-68
2023/02/10 06:50:31;;;;;;;10.60;7.00;;;3.60;99.90;;;;;;4933468;29;20213;-68
2023/02/10 06:52:58;;;;;;;8.68;5.28;;;3.60;99.90;;;;;;4930627;29;20578;-68
2023/02/10 06:55:25;;;;;;;5.70;5.15;;;3.60;99.90;;;;;;4933164;29;20218;-69
2023/02/10 06:57:51;;;;;;;7.47;4.72;;;3.60;99.90;;;;;;4932530;29;20717;-68
2023/02/10 07:00:20;;;;;;;12.55;7.13;;;3.70;99.90;;;;;;4931261;29;20246;-68
2023/02/10 07:02:47;;;;;;;10.32;5.47;;;3.70;99.90;;;;;;4934138;29;20614;-69
2023/02/10 07:05:14;;;;;;;7.65;5.65;;;3.70;99.90;;;;;;4932940;29;20210;-70
2023/02/10 07:07:41;;;;;;;24.13;8.88;;;3.70;99.90;;;;;;4935312;29;20203;-70
2023/02/10 07:10:08;;;;;;;8.13;7.50;;;3.70;99.90;;;;;;4932622;29;20900;-69
2023/02/10 07:12:35;;;;;;;7.65;4.70;;;3.70;99.90;;;;;;4932659;29;20234;-69
2023/02/10 07:15:02;;;;;;;9.45;6.68;;;3.70;99.90;;;;;;4928180;29;22081;-69
2023/02/10 07:17:30;;;;;;;14.82;10.32;;;3.70;99.90;;;;;;4936254;29;20229;-69
2023/02/10 07:19:57;;;;;;;6.35;5.45;;;3.80;99.90;;;;;;4929134;29;20250;-69
2023/02/10 07:22:24;;;;;;;9.77;6.70;;;3.80;99.90;;;;;;4934410;29;20253;-69
2023/02/10 07:24:50;;;;;;;9.07;8.38;;;3.80;99.90;;;;;;4932232;29;20210;-69
2023/02/10 07:27:17;;;;;;;15.80;8.30;;;3.80;99.90;;;;;;4936609;29;20206;-69
2023/02/10 07:29:44;;;;;;;8.27;5.95;;;3.80;99.90;;;;;;4940840;29;20559;-70
2023/02/10 07:32:10;;;;;;;15.95;10.15;;;3.80;99.90;;;;;;4939569;29;20229;-69
2023/02/10 07:34:40;;;;;;;6.35;4.72;;;3.90;99.90;;;;;;4934196;29;20214;-70
2023/02/10 07:37:07;;;;;;;9.70;6.40;;;3.90;99.90;;;;;;4937049;29;20206;-69
2023/02/10 07:39:34;;;;;;;31.42;7.88;;;3.90;99.90;;;;;;4937290;29;20210;-69
2023/02/10 07:42:00;;;;;;;12.23;9.20;;;3.90;99.90;;;;;;4927700;29;20237;-69
2023/02/10 07:44:27;;;;;;;9.38;8.48;;;3.90;99.90;;;;;;4934215;29;20943;-69
2023/02/10 07:46:54;;;;;;;8.77;5.68;;;3.90;99.90;;;;;;4935649;29;20206;-69
2023/02/10 07:49:21;;;;;;;12.30;8.82;;;3.90;99.90;;;;;;4932666;29;20214;-68
2023/02/10 07:51:49;;;;;;;6.13;5.35;;;3.90;99.90;;;;;;4930195;29;20230;-70
2023/02/10 07:54:15;;;;;;;9.50;7.80;;;3.90;99.90;;;;;;4931293;29;20404;-69
2023/02/10 07:56:42;;;;;;;9.98;7.55;;;3.90;99.90;;;;;;4931476;29;20243;-69
2023/02/10 07:59:09;;;;;;;7.13;6.20;;;4.00;99.90;;;;;;4932799;29;20206;-68
2023/02/10 08:01:41;;;;;;;20.90;8.85;;;4.00;99.90;;;;;;4929175;29;20230;-68
2023/02/10 08:04:08;;;;;;;6.60;6.10;;;4.00;99.90;;;;;;4931069;29;20574;-69
2023/02/10 08:06:34;;;;;;;9.32;8.60;;;4.00;99.90;;;;;;4931307;29;20214;-68
2023/02/10 08:09:03;;;;;;;9.88;6.30;;;4.10;99.90;;;;;;4931792;29;20759;-69
2023/02/10 08:11:30;;;;;;;25.52;7.18;;;4.10;99.90;;;;;;4933126;29;20230;-69
2023/02/10 08:13:57;;;;;;;29.65;8.23;;;4.10;99.90;;;;;;4932651;29;20213;-69
2023/02/10 08:16:23;;;;;;;11.18;6.60;;;4.10;99.90;;;;;;4932331;29;20691;-69
2023/02/10 08:18:50;;;;;;;12.90;6.22;;;4.10;99.90;;;;;;4926722;29;20515;-69
2023/02/10 08:21:17;;;;;;;8.13;6.07;;;4.20;99.90;;;;;;4932801;29;20231;-68
2023/02/10 08:23:45;;;;;;;12.88;7.38;;;4.20;99.90;;;;;;4929574;29;20203;-68
2023/02/10 08:26:13;;;;;;;10.85;7.93;;;4.20;99.90;;;;;;4932201;29;20210;-68
2023/02/10 08:28:41;;;;;;;20.35;8.30;;;4.20;99.90;;;;;;4930796;29;20210;-68
2023/02/10 08:31:09;;;;;;;9.77;6.50;;;4.20;99.90;;;;;;4927057;29;20233;-68
2023/02/10 08:33:37;;;;;;;12.93;7.00;;;4.30;99.90;;;;;;4929523;29;20211;-68
2023/02/10 08:36:05;;;;;;;6.95;6.32;;;4.30;99.90;;;;;;4932542;29;20214;-68
2023/02/10 08:38:32;;;;;;;9.68;8.65;;;4.30;99.90;;;;;;4931868;29;20210;-68
2023/02/10 08:40:59;;;;;;;15.65;9.52;;;4.30;99.90;;;;;;4931331;29;20222;-69
2023/02/10 08:43:28;;;;;;;7.78;7.10;;;4.30;99.90;;;;;;4932345;29;20214;-69
2023/02/10 08:45:56;;;;;;;11.05;6.10;;;4.30;99.90;;;;;;4933195;29;20232;-69
2023/02/10 08:48:23;;;;;;;7.80;4.18;;;4.40;99.90;;;;;;4930914;29;22115;-68
2023/02/10 08:50:49;;;;;;;10.48;6.20;;;4.40;99.90;;;;;;4932424;29;20233;-69
2023/02/10 08:53:16;;;;;;;9.68;3.92;;;4.40;99.90;;;;;;4931947;29;20270;-70
2023/02/10 08:55:43;;;;;;;10.73;6.63;;;4.50;99.90;;;;;;4928907;29;20261;-70
2023/02/10 08:58:10;;;;;;;12.88;8.50;;;4.50;99.90;;;;;;4929121;29;20222;-69
2023/02/10 09:00:38;;;;;;;11.63;6.65;;;4.50;99.90;;;;;;4929900;29;20227;-69
2023/02/10 09:03:05;;;;;;;17.35;9.50;;;4.60;99.90;;;;;;4932262;29;20234;-68
2023/02/10 09:05:35;;;;;;;25.00;5.93;;;4.60;99.90;;;;;;4933456;29;20675;-68
2023/02/10 09:08:03;;;;;;;22.63;8.82;;;4.70;99.90;;;;;;4930162;29;20210;-69
2023/02/10 09:10:30;;;;;;;12.68;6.47;;;4.70;99.90;;;;;;4931627;29;20211;-68
2023/02/10 09:12:57;;;;;;;12.75;8.18;;;4.70;99.90;;;;;;4923219;29;20233;-69
2023/02/10 09:15:23;;;;;;;6.75;5.25;;;4.80;99.90;;;;;;4931920;29;20617;-68
2023/02/10 09:17:51;;;;;;;6.88;5.80;;;4.90;99.90;;;;;;4930766;29;20238;-68
2023/02/10 09:20:18;;;;;;;18.50;6.47;;;4.80;99.90;;;;;;4931237;29;20235;-68
2023/02/10 09:22:47;;;;;;;16.02;9.00;;;4.90;99.90;;;;;;4931629;29;20270;-68
2023/02/10 09:25:14;;;;;;;10.27;8.35;;;4.80;99.90;;;;;;4932708;29;20290;-69
2023/02/10 09:27:41;;;;;;;7.20;4.22;;;4.90;99.90;;;;;;4929557;29;20211;-68
2023/02/10 09:30:08;;;;;;;20.92;5.45;;;4.90;99.90;;;;;;4930818;29;20537;-68
2023/02/10 09:32:35;;;;;;;10.60;7.13;;;4.90;99.90;;;;;;4931353;29;20235;-69
2023/02/10 09:35:03;;;;;;;11.77;7.65;;;5.00;99.90;;;;;;4930150;29;20671;-69
2023/02/10 09:37:30;;;;;;;9.25;8.10;;;5.10;99.90;;;;;;4929031;29;20227;-69
2023/02/10 09:39:57;;;;;;;16.35;6.25;;;5.00;99.90;;;;;;4931752;29;20218;-69
2023/02/10 09:42:31;;;;;;;17.15;4.50;;;5.00;99.90;;;;;;4930063;29;20929;-69
2023/02/10 09:45:06;;;;;;;15.48;7.55;;;5.00;99.90;;;;;;4926696;29;20199;-69
2023/02/10 09:47:43;;;;;;;13.13;7.15;;;5.00;99.90;;;;;;4929844;29;20211;-69
2023/02/10 09:50:27;;;;;;;16.63;8.52;;;5.00;99.90;;;;;;4929274;29;20211;-69
2023/02/10 09:53:06;;;;;;;9.00;7.40;;;5.00;99.90;;;;;;4931081;29;20676;-68
2023/02/10 09:55:37;;;;;;;17.60;6.88;;;5.00;99.90;;;;;;4930983;29;20238;-68
2023/02/10 09:58:11;;;;;;;12.88;5.00;;;5.00;99.90;;;;;;4931060;29;20211;-68
2023/02/10 10:00:41;;;;;;;13.65;6.95;;;5.00;99.90;;;;;;4931606;29;20442;-68
2023/02/10 10:03:14;;;;;;;9.90;5.40;;;5.10;99.90;;;;;;4930384;29;20235;-68
2023/02/10 10:05:51;;;;;;;6.60;5.32;;;5.10;99.90;;;;;;4928500;29;20309;-68
2023/02/10 10:08:23;;;;;;;10.25;6.28;;;5.20;99.90;;;;;;4930547;29;20596;-69
2023/02/10 10:10:51;;;;;;;10.05;6.57;;;5.20;99.90;;;;;;4928031;29;20266;-67
2023/02/10 10:13:22;;;;;;;11.35;6.55;;;5.20;99.90;;;;;;4930523;29;20716;-69
2023/02/10 10:16:01;;;;;;;11.73;6.85;;;5.30;99.90;;;;;;4930026;29;20258;-69
2023/02/10 10:18:33;;;;;;;11.80;7.95;;;5.30;99.90;;;;;;4932362;29;20207;-69
2023/02/10 10:21:06;;;;;;;12.80;5.78;;;5.40;99.90;;;;;;4928744;29;20341;-69
2023/02/10 10:23:53;;;;;;;16.35;6.78;;;5.30;99.90;;;;;;4925185;29;20223;-69
2023/02/10 10:26:36;;;;;;;7.68;6.15;;;5.40;99.90;;;;;;4928658;29;20214;-69
2023/02/10 10:29:17;;;;;;;18.70;6.35;;;5.50;99.90;;;;;;4932867;29;20212;-69
2023/02/10 10:31:46;;;;;;;10.90;9.88;;;5.50;99.90;;;;;;4933869;29;20334;-69
2023/02/10 10:34:16;;;;;;;5.88;4.80;;;5.50;99.90;;;;;;4929810;29;20233;-69
2023/02/10 10:36:46;;;;;;;7.53;6.63;;;5.50;99.90;;;;;;4934936;29;20230;-69
2023/02/10 10:39:19;;;;;;;6.55;5.05;;;5.60;99.90;;;;;;4932911;29;20212;-69
2023/02/10 10:41:47;;;;;;;9.20;6.63;;;5.60;99.90;;;;;;4933815;29;20231;-69
2023/02/10 10:44:18;;;;;;;16.65;6.50;;;5.60;99.90;;;;;;4929667;29;20219;-69
2023/02/10 10:46:48;;;;;;;11.23;7.25;;;5.70;99.90;;;;;;4934925;29;20224;-69
2023/02/10 10:49:15;;;;;;;18.15;8.18;;;5.70;99.90;;;;;;4934018;29;20235;-75
2023/02/10 10:51:47;;;;;;;11.80;6.80;;;5.80;99.90;;;;;;4929084;29;20234;-69
2023/02/10 10:54:17;;;;;;;12.82;6.63;;;5.90;99.90;;;;;;4929740;29;20295;-69
2023/02/10 10:56:47;;;;;;;5.90;4.55;;;5.90;99.90;;;;;;4932020;29;20223;-69
2023/02/10 10:59:17;;;;;;;11.38;5.82;;;5.90;99.90;;;;;;4933798;29;20378;-69
2023/02/10 11:01:45;;;;;;;9.05;4.97;;;6.00;99.90;;;;;;4933930;29;20262;-68
2023/02/10 11:04:14;;;;;;;9.82;6.55;;;6.00;99.90;;;;;;4931882;29;20212;-68
2023/02/10 11:06:43;;;;;;;13.98;7.43;;;6.10;99.90;;;;;;4933452;29;20211;-69
2023/02/10 11:09:22;;;;;;;30.00;7.70;;;6.20;99.90;;;;;;4937931;29;20212;-69
2023/02/10 11:11:50;;;;;;;9.13;6.82;;;6.30;99.90;;;;;;4935897;29;20672;-68
2023/02/10 11:14:19;;;;;;;7.18;4.97;;;6.40;99.90;;;;;;4930131;29;20203;-68
2023/02/10 11:16:49;;;;;;;5.50;4.88;;;6.40;99.90;;;;;;4932811;29;20209;-69
2023/02/10 11:19:21;;;;;;;6.07;4.60;;;6.50;99.90;;;;;;4933950;29;20219;-70
2023/02/10 11:21:48;;;;;;;8.45;6.65;;;6.50;99.90;;;;;;4934980;29;20240;-69
2023/02/10 11:24:21;;;;;;;11.32;5.50;;;6.60;99.90;;;;;;4936020;29;20207;-69
2023/02/10 11:26:57;;;;;;;7.32;4.60;;;6.60;99.90;;;;;;4929487;29;20696;-69
2023/02/10 11:29:23;;;;;;;9.20;6.40;;;6.70;99.90;;;;;;4931884;29;20212;-69
2023/02/10 11:31:53;;;;;;;31.55;7.82;;;6.70;99.90;;;;;;4932143;29;20232;-69
2023/02/10 11:34:24;;;;;;;4.75;4.32;;;6.70;99.90;;;;;;4927364;29;20212;-68
2023/02/10 11:36:52;;;;;;;10.73;5.00;;;6.70;99.90;;;;;;4919197;29;20216;-68
2023/02/10 11:39:23;;;;;;;6.00;5.35;;;6.70;99.90;;;;;;4935405;29;20683;-68
2023/02/10 11:41:50;;;;;;;8.60;3.85;;;6.70;99.90;;;;;;4933442;29;20235;-68
2023/02/10 11:44:27;;;;;;;3.42;2.85;;;6.80;99.90;;;;;;4934240;29;20212;-69
2023/02/10 11:46:59;;;;;;;10.88;5.53;;;6.90;99.90;;;;;;4929661;29;20207;-68
2023/02/10 11:49:30;;;;;;;3.58;3.38;;;6.90;99.90;;;;;;4931819;29;20556;-68
2023/02/10 11:51:58;;;;;;;6.70;3.78;;;6.90;99.90;;;;;;4931311;29;20229;-68
2023/02/10 11:54:27;;;;;;;12.25;8.07;;;6.90;99.90;;;;;;4930849;29;20223;-68
2023/02/10 11:59:59;;;;;;;3.65;3.42;;;7.00;99.90;;;;;;4929893;29;20216;-68
2023/02/10 12:02:36;;;;;;;5.60;5.10;;;7.20;99.90;;;;;;4929175;28;20236;-67
2023/02/10 12:05:26;;;;;;;4.03;3.60;;;7.20;99.90;;;;;;4931709;29;20678;-67
2023/02/10 12:08:09;;;;;;;17.33;5.93;;;7.30;99.90;;;;;;4926622;29;20215;-69
2023/02/10 12:10:43;;;;;;;9.73;5.38;;;7.30;99.90;;;;;;4931978;29;20688;-69
2023/02/10 12:13:19;;;;;;;14.07;6.35;;;7.30;99.90;;;;;;4935064;29;20231;-69
2023/02/10 12:15:54;;;;;;;4.65;4.13;;;7.30;99.90;;;;;;4934952;29;20580;-69
2023/02/10 12:18:45;;;;;;;6.82;5.13;;;7.30;99.90;;;;;;4931757;29;20212;-70
2023/02/10 12:21:31;;;;;;;8.02;5.28;;;7.30;99.90;;;;;;4929335;29;20240;-69
2023/02/10 12:24:11;;;;;;;14.23;4.38;;;7.30;99.90;;;;;;4927817;29;20238;-68
2023/02/10 12:26:46;;;;;;;16.60;4.97;;;7.30;99.90;;;;;;4933281;29;20298;-70
2023/02/10 12:29:26;;;;;;;6.75;5.78;;;7.30;99.90;;;;;;4933007;29;20205;-68
2023/02/10 12:32:03;;;;;;;4.13;3.42;;;7.40;99.90;;;;;;4929370;29;20236;-69
2023/02/10 12:34:42;;;;;;;6.53;5.93;;;7.40;99.90;;;;;;4930413;29;21110;-69
2023/02/10 12:37:24;;;;;;;2.63;2.55;;;7.50;99.90;;;;;;4932411;29;20212;-68
2023/02/10 12:39:57;;;;;;;5.47;4.43;;;7.50;99.90;;;;;;4931469;29;20213;-69
2023/02/10 12:42:41;;;;;;;8.15;4.22;;;7.70;99.90;;;;;;4930236;29;20266;-69
2023/02/10 12:45:19;;;;;;;4.63;3.90;;;7.70;99.90;;;;;;4932505;29;20240;-69
2023/02/10 12:47:56;;;;;;;4.78;4.35;;;7.80;99.90;;;;;;4929470;29;20213;-69
2023/02/10 12:50:48;;;;;;;7.47;4.50;;;7.80;99.90;;;;;;4931021;29;20205;-69
2023/02/10 12:53:19;;;;;;;7.82;5.93;;;7.80;99.90;;;;;;4926848;29;20212;-69
2023/02/10 12:55:54;;;;;;;8.52;4.40;;;7.80;99.90;;;;;;4930459;29;20209;-69
2023/02/10 12:58:27;;;;;;;5.05;4.57;;;7.80;99.90;;;;;;4932828;29;20223;-69
2023/02/10 13:01:02;;;;;;;6.38;4.63;;;7.70;99.90;;;;;;4934018;29;20219;-69
2023/02/10 13:03:34;;;;;;;12.18;5.45;;;7.70;99.90;;;;;;4928607;29;20211;-69
2023/02/10 13:06:18;;;;;;;7.47;5.40;;;7.70;99.90;;;;;;4931730;29;20208;-69
2023/02/10 13:08:51;;;;;;;4.70;4.50;;;7.70;99.90;;;;;;4929106;29;20212;-69
2023/02/10 13:11:27;;;;;;;6.22;4.47;;;7.70;99.90;;;;;;4932200;29;20237;-69
2023/02/10 13:13:58;;;;;;;4.07;3.67;;;7.70;99.90;;;;;;4926881;29;20703;-69
2023/02/10 13:16:30;;;;;;;3.50;2.88;;;7.70;99.90;;;;;;4933072;29;20220;-68
2023/02/10 13:19:02;;;;;;;11.02;4.28;;;7.70;99.90;;;;;;4933253;29;20217;-68
2023/02/10 13:21:35;;;;;;;6.38;4.55;;;7.70;99.90;;;;;;4932051;29;20252;-68
2023/02/10 13:24:09;;;;;;;8.15;6.05;;;7.70;99.90;;;;;;4931328;29;20205;-68
2023/02/10 13:26:49;;;;;;;10.52;5.75;;;7.70;99.90;;;;;;4932569;29;20218;-68
2023/02/10 13:29:28;;;;;;;9.48;5.43;;;7.60;99.90;;;;;;4933806;29;20300;-67
2023/02/10 13:32:19;;;;;;;5.78;4.32;;;7.50;99.90;;;;;;4925807;29;20699;-67
2023/02/10 13:34:49;;;;;;;4.53;2.72;;;7.40;99.90;;;;;;4929038;29;20622;-68
2023/02/10 13:37:20;;;;;;;5.60;4.25;;;7.30;99.90;;;;;;4926542;29;20567;-68
2023/02/10 13:39:53;;;;;;;6.20;4.53;;;7.20;99.90;;;;;;4930801;29;20294;-68
2023/02/10 13:42:26;;;;;;;5.18;3.95;;;7.20;99.90;;;;;;4933405;29;20238;-68
2023/02/10 13:45:00;;;;;;;4.28;3.90;;;7.20;99.90;;;;;;4930764;29;20211;-68
2023/02/10 13:47:34;;;;;;;7.65;4.57;;;7.30;99.90;;;;;;4933085;29;20215;-69
2023/02/10 13:50:04;;;;;;;6.38;5.75;;;7.40;99.90;;;;;;4925525;29;20228;-68
2023/02/10 13:52:34;;;;;;;5.75;5.32;;;7.60;99.90;;;;;;4926507;29;20685;-68
2023/02/10 13:55:04;;;;;;;6.40;4.95;;;7.70;99.90;;;;;;4927720;29;20216;-69
2023/02/10 13:57:33;;;;;;;3.95;3.60;;;7.80;99.90;;;;;;4928972;29;20228;-69
2023/02/10 14:00:19;;;;;;;6.55;5.90;;;7.80;99.90;;;;;;4932831;29;20212;-69
2023/02/10 14:02:59;;;;;;;4.60;4.20;;;7.80;99.90;;;;;;4936496;29;20231;-69
2023/02/10 14:05:29;;;;;;;8.55;4.80;;;7.80;99.90;;;;;;4933470;29;20234;-68
2023/02/10 14:07:56;;;;;;;6.43;5.75;;;7.80;99.90;;;;;;4933206;29;20209;-69
2023/02/10 14:10:31;;;;;;;9.57;5.30;;;7.70;99.90;;;;;;4932505;29;20212;-69
2023/02/10 14:13:00;;;;;;;4.00;3.65;;;7.70;99.90;;;;;;4935529;29;20236;-69
2023/02/10 14:15:31;;;;;;;3.90;3.58;;;7.70;99.90;;;;;;4934891;29;20220;-69
2023/02/10 14:18:00;;;;;;;5.55;4.95;;;7.70;99.90;;;;;;4928980;29;20217;-68
2023/02/10 14:20:31;;;;;;;4.88;3.83;;;7.70;99.90;;;;;;4934973;29;20526;-69
2023/02/10 14:22:59;;;;;;;14.52;5.57;;;7.70;99.90;;;;;;4932279;29;20599;-69
2023/02/10 14:25:34;;;;;;;2.92;2.72;;;7.60;99.90;;;;;;4934764;29;20209;-71
2023/02/10 14:28:03;;;;;;;4.05;3.72;;;7.70;99.90;;;;;;4932772;29;20214;-69
2023/02/10 14:30:38;;;;;;;3.67;3.20;;;7.70;99.90;;;;;;4935688;29;20272;-68
2023/02/10 14:33:06;;;;;;;6.00;3.50;;;7.70;99.90;;;;;;4936400;29;20220;-68
2023/02/10 14:35:37;;;;;;;3.90;3.55;;;7.60;99.90;;;;;;4934890;29;20677;-68
2023/02/10 14:38:05;;;;;;;7.70;6.75;;;7.60;99.90;;;;;;4934499;29;20208;-68
2023/02/10 14:40:33;;;;;;;6.97;6.35;;;7.50;99.90;;;;;;4940082;29;20235;-69
2023/02/10 14:43:02;;;;;;;10.82;7.38;;;7.50;99.90;;;;;;4941690;29;20236;-70
2023/02/10 14:45:30;;;;;;;6.55;5.32;;;7.50;99.90;;;;;;4940745;29;20216;-70
2023/02/10 14:48:00;;;;;;;7.05;6.35;;;7.50;99.90;;;;;;4936065;29;20421;-70
2023/02/10 14:50:29;;;;;;;8.80;6.15;;;7.50;99.90;;;;;;4934995;29;20218;-69
2023/02/10 14:52:56;;;;;;;5.82;4.45;;;7.40;99.90;;;;;;4934600;29;20693;-69
2023/02/10 14:55:26;;;;;;;7.30;6.60;;;7.40;99.90;;;;;;4935980;29;20207;-69
2023/02/10 14:57:53;;;;;;;5.35;3.30;;;7.40;99.90;;;;;;4935593;29;20212;-69
2023/02/10 15:00:20;;;;;;;4.78;4.38;;;7.40;99.90;;;;;;4935949;29;20220;-69
2023/02/10 15:02:49;;;;;;;3.33;3.08;;;7.40;99.90;;;;;;4934036;29;20243;-69
2023/02/10 15:05:20;;;;;;;4.57;4.32;;;7.30;99.90;;;;;;4934538;29;20236;-69
2023/02/10 15:07:52;;;;;;;4.88;4.25;;;7.30;99.90;;;;;;4935917;29;20212;-69
2023/02/10 15:10:25;;;;;;;3.55;3.20;;;7.40;99.90;;;;;;4935153;29;20337;-68
2023/02/10 15:12:53;;;;;;;7.28;4.05;;;7.40;99.90;;;;;;4923453;29;20232;-68
2023/02/10 15:15:27;;;;;;;3.65;3.35;;;7.40;99.90;;;;;;4934029;29;20209;-68
2023/02/10 15:17:58;;;;;;;3.88;3.67;;;7.40;99.90;;;;;;4929036;29;20586;-67
2023/02/10 15:20:28;;;;;;;8.73;3.88;;;7.30;99.90;;;;;;4932068;29;20216;-67
2023/02/10 15:23:15;;;;;;;5.75;3.63;;;7.20;99.90;;;;;;4927193;29;20282;-68
2023/02/10 15:25:42;;;;;;;11.15;4.70;;;7.20;99.90;;;;;;4935239;29;20586;-69
2023/02/10 15:28:21;;;;;;;6.07;3.33;;;7.10;99.90;;;;;;4933600;29;20219;-69
2023/02/10 15:30:57;;;;;;;5.97;3.70;;;7.00;99.90;;;;;;4933933;29;20203;-68
2023/02/10 15:33:26;;;;;;;5.60;3.70;;;7.00;99.90;;;;;;4932335;29;20212;-69
2023/02/10 15:35:57;;;;;;;10.27;3.88;;;7.00;99.90;;;;;;4935301;29;20759;-69
2023/02/10 15:38:25;;;;;;;15.07;5.63;;;7.00;99.90;;;;;;4934511;29;20231;-69
2023/02/10 15:40:53;;;;;;;3.95;3.45;;;7.00;99.90;;;;;;4935226;29;20204;-69
2023/02/10 15:43:27;;;;;;;4.20;3.78;;;7.00;99.90;;;;;;4928828;29;20242;-70
2023/02/10 15:46:05;;;;;;;5.65;5.25;;;7.00;99.90;;;;;;4934169;29;20215;-68
2023/02/10 15:48:32;;;;;;;4.07;3.78;;;6.90;99.90;;;;;;4932761;29;20222;-69
2023/02/10 15:51:00;;;;;;;12.07;5.05;;;6.90;99.90;;;;;;4934191;29;20235;-69
2023/02/10 15:53:27;;;;;;;8.25;4.80;;;6.90;99.90;;;;;;4927175;29;20208;-69
2023/02/10 15:55:54;;;;;;;21.67;5.28;;;6.90;99.90;;;;;;4933896;29;20242;-69
2023/02/10 15:58:21;;;;;;;4.15;3.78;;;6.90;99.90;;;;;;4929434;29;20271;-69
2023/02/10 16:00:48;;;;;;;8.68;4.75;;;6.90;99.90;;;;;;4933095;29;20208;-69
2023/02/10 16:03:15;;;;;;;6.15;5.55;;;6.90;99.90;;;;;;4928908;29;20243;-69
2023/02/10 16:05:42;;;;;;;7.72;5.65;;;6.80;99.90;;;;;;4933599;29;20208;-69
2023/02/10 16:08:20;;;;;;;15.90;5.90;;;6.80;99.90;;;;;;4933224;29;20215;-69
2023/02/10 16:10:47;;;;;;;7.20;6.65;;;6.80;99.90;;;;;;4937784;29;20262;-69
2023/02/10 16:13:15;;;;;;;6.68;6.05;;;6.70;99.90;;;;;;4939054;29;20227;-70
2023/02/10 16:15:43;;;;;;;7.10;4.82;;;6.70;99.90;;;;;;4933878;29;20212;-68
2023/02/10 16:18:12;;;;;;;14.70;8.20;;;6.60;99.90;;;;;;4938054;29;20216;-69
2023/02/10 16:20:40;;;;;;;17.67;6.30;;;6.60;99.90;;;;;;4930880;29;20214;-68
2023/02/10 16:23:13;;;;;;;10.27;5.10;;;6.60;99.90;;;;;;4931695;29;20231;-68
2023/02/10 16:25:40;;;;;;;8.50;6.22;;;6.60;99.90;;;;;;4929266;29;20226;-68
2023/02/10 16:28:07;;;;;;;11.75;5.50;;;6.60;99.90;;;;;;4934481;29;20212;-69
2023/02/10 16:30:35;;;;;;;14.75;6.13;;;6.50;99.90;;;;;;4932313;29;20234;-69
2023/02/10 16:33:02;;;;;;;10.82;6.13;;;6.50;99.90;;;;;;4932422;29;20550;-69
2023/02/10 16:35:29;;;;;;;16.20;6.57;;;6.50;99.90;;;;;;4926716;29;20545;-68
2023/02/10 16:37:56;;;;;;;5.63;5.43;;;6.50;99.90;;;;;;4931463;29;20215;-68
2023/02/10 16:40:27;;;;;;;7.60;5.43;;;6.50;99.90;;;;;;4933235;29;20565;-69
2023/02/10 16:42:53;;;;;;;8.68;6.20;;;6.50;99.90;;;;;;4931680;29;20231;-69
2023/02/10 16:45:20;;;;;;;15.20;5.65;;;6.50;99.90;;;;;;4924663;28;20207;-68
2023/02/10 16:47:47;;;;;;;19.30;8.40;;;6.40;99.90;;;;;;4925670;29;20207;-68
2023/02/10 16:50:23;;;;;;;22.58;7.30;;;6.50;99.90;;;;;;4923166;29;20203;-69
2023/02/10 16:52:49;;;;;;;8.15;6.78;;;6.50;99.90;;;;;;4931065;29;20588;-69
2023/02/10 16:55:17;;;;;;;9.73;6.60;;;6.40;99.90;;;;;;4932547;29;20239;-68
2023/02/10 16:57:45;;;;;;;14.32;9.68;;;6.40;99.90;;;;;;4926696;29;20210;-69
2023/02/10 17:00:14;;;;;;;14.00;6.35;;;6.40;99.90;;;;;;4930900;29;20210;-69
2023/02/10 17:02:41;;;;;;;4.22;3.83;;;6.30;99.90;;;;;;4932639;29;21522;-69
2023/02/10 17:05:09;;;;;;;5.68;5.22;;;6.30;99.90;;;;;;4934063;29;20305;-68
2023/02/10 17:07:37;;;;;;;12.02;6.18;;;6.30;99.90;;;;;;4932492;29;20218;-69
2023/02/10 17:10:04;;;;;;;8.27;5.20;;;6.30;99.90;;;;;;4929659;29;20219;-70
2023/02/10 17:12:31;;;;;;;8.10;7.00;;;6.30;99.90;;;;;;4932752;29;20231;-69
2023/02/10 17:14:59;;;;;;;19.90;7.38;;;6.30;99.90;;;;;;4927110;29;20217;-69
2023/02/10 17:17:26;;;;;;;14.95;8.10;;;6.30;99.90;;;;;;4928447;29;20606;-68
2023/02/10 17:19:52;;;;;;;25.17;9.98;;;6.30;99.90;;;;;;4930264;29;20214;-68
2023/02/10 17:22:19;;;;;;;11.50;5.80;;;6.30;99.90;;;;;;4932506;29;20247;-69
2023/02/10 17:24:46;;;;;;;11.98;5.90;;;6.20;99.90;;;;;;4932219;29;20232;-69
2023/02/10 17:27:12;;;;;;;8.63;6.30;;;6.20;99.90;;;;;;4928379;29;20215;-68
2023/02/10 17:29:39;;;;;;;11.00;5.30;;;6.20;99.90;;;;;;4932913;29;20216;-68
2023/02/10 17:32:07;;;;;;;10.38;6.03;;;6.10;99.90;;;;;;4928455;29;20240;-69
2023/02/10 17:34:35;;;;;;;13.60;7.07;;;6.10;99.90;;;;;;4930761;29;20360;-69
2023/02/10 17:37:03;;;;;;;16.05;8.82;;;6.10;99.90;;;;;;4932225;29;20207;-69
2023/02/10 17:42:10;;;;;;;7.78;6.80;;;6.00;99.90;;;;;;4923401;29;20218;-68
2023/02/10 17:44:37;;;;;;;6.10;5.43;;;5.90;99.90;;;;;;4923388;29;20660;-68
2023/02/10 17:47:04;;;;;;;9.40;6.55;;;5.90;99.90;;;;;;4922313;29;20239;-69
2023/02/10 17:49:33;;;;;;;9.55;7.30;;;5.90;99.90;;;;;;4930425;29;20211;-70
2023/02/10 17:52:01;;;;;;;13.55;7.32;;;5.80;99.90;;;;;;4925285;29;20226;-67
2023/02/10 17:54:30;;;;;;;9.55;8.18;;;5.70;99.90;;;;;;4927894;29;20211;-67
2023/02/10 17:56:57;;;;;;;20.17;9.32;;;5.70;99.90;;;;;;4924890;29;20673;-68
2023/02/10 17:59:24;;;;;;;14.55;8.25;;;5.60;99.90;;;;;;4926054;29;20219;-68
2023/02/10 18:01:55;;;;;;;11.80;8.88;;;5.60;99.90;;;;;;4925187;29;20271;-67
2023/02/10 18:04:22;;;;;;;14.95;8.10;;;5.60;99.90;;;;;;4923477;29;20289;-68
2023/02/10 18:06:50;;;;;;;14.40;7.43;;;5.60;99.90;;;;;;4925559;29;20218;-70
2023/02/10 18:09:17;;;;;;;17.48;8.90;;;5.50;99.90;;;;;;4925105;29;20229;-68
2023/02/10 18:11:43;;;;;;;13.23;7.03;;;5.50;99.90;;;;;;4922867;29;20244;-66
2023/02/10 18:14:10;;;;;;;10.07;6.78;;;5.40;99.90;;;;;;4929762;29;20222;-68